createdAt,value
2019-04-07T00:01:34.407Z,96651.00
2019-04-07T00:05:35.600Z,96655.00
2019-04-07T00:09:37.227Z,96656.00
2019-04-07T00:13:38.412Z,96653.00
2019-04-07T00:17:39.430Z,96654.00
2019-04-07T00:21:40.860Z,96642.00
2019-04-07T00:25:42.032Z,96642.00
2019-04-07T00:29:42.917Z,96646.00
2019-04-07T00:33:43.914Z,96644.00
2019-04-07T00:37:44.887Z,96653.00
2019-04-07T00:41:46.358Z,96652.00
2019-04-07T00:45:47.338Z,96650.00
2019-04-07T00:49:48.329Z,96644.00
2019-04-07T00:53:49.810Z,96648.00
2019-04-07T00:57:50.845Z,96650.00
2019-04-07T01:01:51.816Z,96654.00
2019-04-07T01:05:53.303Z,96652.00
2019-04-07T01:09:54.292Z,96554.00
2019-04-07T01:13:55.521Z,96643.00
2019-04-07T01:17:56.510Z,96652.00
2019-04-07T01:21:57.409Z,96647.00
2019-04-07T01:25:58.566Z,96648.00
2019-04-07T01:29:59.603Z,96656.00
2019-04-07T01:34:00.551Z,96656.00
2019-04-07T01:38:01.588Z,96655.00
2019-04-07T01:42:10.724Z,96652.00
2019-04-07T01:46:17.412Z,96658.00
2019-04-07T01:50:21.090Z,96645.00
2019-04-07T01:54:27.142Z,96646.00
2019-04-07T01:58:32.890Z,96643.00
2019-04-07T02:02:47.848Z,96642.00
2019-04-07T02:06:59.591Z,96646.00
2019-04-07T02:11:18.973Z,96644.00
2019-04-07T02:15:30.932Z,96656.00
2019-04-07T02:19:37.077Z,96651.00
2019-04-07T02:23:49.437Z,96658.00
2019-04-07T02:27:52.306Z,96656.00
2019-04-07T02:31:58.488Z,96655.00
2019-04-07T02:36:17.945Z,96650.00
2019-04-07T02:40:15.296Z,96649.00
2019-04-07T02:44:35.184Z,96647.00
2019-04-07T02:48:41.247Z,96645.00
2019-04-07T02:52:45.198Z,96642.00
2019-04-07T02:56:52.374Z,96648.00
2019-04-07T03:00:55.682Z,96650.00
2019-04-07T03:05:05.296Z,96652.00
2019-04-07T03:09:09.294Z,96648.00
2019-04-07T03:13:12.755Z,96652.00
2019-04-07T03:17:18.600Z,96659.00
2019-04-07T03:21:31.081Z,96669.00
2019-04-07T03:25:37.021Z,96672.00
2019-04-07T03:29:40.293Z,96673.00
2019-04-07T03:33:45.792Z,96679.00
2019-04-07T03:37:48.916Z,96674.00
2019-04-07T03:42:04.335Z,96673.00
2019-04-07T03:46:22.463Z,96665.00
2019-04-07T03:50:28.048Z,96675.00
2019-04-07T03:54:37.046Z,96673.00
2019-04-07T03:58:59.850Z,96673.00
2019-04-07T04:03:02.876Z,96666.00
2019-04-07T04:07:20.241Z,96675.00
2019-04-07T04:11:14.188Z,96674.00
2019-04-07T04:15:20.127Z,96677.00
2019-04-07T04:19:21.220Z,96669.00
2019-04-07T04:23:22.126Z,96677.00
2019-04-07T04:27:23.838Z,96677.00
2019-04-07T04:31:25.466Z,96685.00
2019-04-07T04:35:26.715Z,96682.00
2019-04-07T04:39:27.859Z,96681.00
2019-04-07T04:43:28.751Z,96685.00
2019-04-07T04:47:29.730Z,96683.00
2019-04-07T04:51:35.058Z,96694.00
2019-04-07T04:55:33.798Z,96695.00
2019-04-07T04:59:35.232Z,96696.00
2019-04-07T05:03:36.285Z,96696.00
2019-04-07T05:07:49.746Z,96702.00
2019-04-07T05:11:40.786Z,96697.00
2019-04-07T05:15:41.856Z,96698.00
2019-04-07T05:19:42.942Z,96700.00
2019-04-07T05:23:44.170Z,96703.00
2019-04-07T05:27:45.777Z,96699.00
2019-04-07T05:31:46.750Z,96705.00
2019-04-07T05:35:48.316Z,96703.00
2019-04-07T05:39:49.311Z,96701.00
2019-04-07T05:43:50.284Z,96701.00
2019-04-07T05:47:53.228Z,96714.00
2019-04-07T05:51:54.501Z,96717.00
2019-04-07T05:55:56.242Z,96718.00
2019-04-07T05:59:57.287Z,96723.00
2019-04-07T06:03:58.200Z,96725.00
2019-04-07T06:08:06.301Z,96728.00
2019-04-07T06:12:05.938Z,96726.00
2019-04-07T06:16:05.356Z,96739.00
2019-04-07T06:20:12.059Z,96735.00
2019-04-07T06:24:10.160Z,96732.00
2019-04-07T06:28:12.033Z,96740.00
2019-04-07T06:32:14.376Z,96742.00
2019-04-07T06:36:18.437Z,96744.00
2019-04-07T06:40:20.569Z,96744.00
2019-04-07T06:44:22.978Z,96751.00
2019-04-07T06:48:24.700Z,96750.00
2019-04-07T06:52:40.575Z,96748.00
2019-04-07T06:56:50.004Z,96744.00
2019-04-07T07:01:05.805Z,96743.00
2019-04-07T07:05:14.365Z,96735.00
2019-04-07T07:09:20.073Z,96757.00
2019-04-07T07:17:47.970Z,96755.00
2019-04-07T07:21:51.090Z,96754.00
2019-04-07T07:26:00.976Z,96753.00
2019-04-07T07:30:03.178Z,96754.00
2019-04-07T07:34:04.983Z,96762.00
2019-04-07T07:38:07.544Z,96760.00
2019-04-07T07:42:09.356Z,96757.00
2019-04-07T07:46:10.530Z,96745.00
2019-04-07T07:50:12.148Z,96747.00
2019-04-07T07:54:14.947Z,96767.00
2019-04-07T07:58:16.043Z,96764.00
2019-04-07T08:02:19.438Z,96768.00
2019-04-07T08:06:20.508Z,96762.00
2019-04-07T08:10:25.081Z,96779.00
2019-04-07T08:14:24.288Z,96782.00
2019-04-07T08:18:25.164Z,96766.00
2019-04-07T08:22:32.456Z,96716.00
2019-04-07T08:26:28.936Z,96781.00
2019-04-07T08:30:30.632Z,96783.00
2019-04-07T08:34:33.027Z,96781.00
2019-04-07T08:38:34.377Z,96786.00
2019-04-07T08:42:35.808Z,96797.00
2019-04-07T08:46:41.630Z,96781.00
2019-04-07T08:50:39.918Z,96800.00
2019-04-07T08:54:41.030Z,96791.00
2019-04-07T08:58:42.571Z,96789.00
2019-04-07T09:02:44.010Z,96800.00
2019-04-07T09:06:45.010Z,96801.00
2019-04-07T09:10:50.984Z,96800.00
2019-04-07T09:14:52.140Z,96802.00
2019-04-07T09:19:03.840Z,96787.00
2019-04-07T09:23:12.373Z,96806.00
2019-04-07T09:27:27.214Z,96799.00
2019-04-07T09:31:36.403Z,96799.00
2019-04-07T09:35:58.731Z,96812.00
2019-04-07T09:40:03.057Z,96790.00
2019-04-07T09:44:08.222Z,96804.00
2019-04-07T09:48:13.785Z,96799.00
2019-04-07T09:52:29.402Z,96805.00
2019-04-07T09:56:33.498Z,96806.00
2019-04-07T10:00:46.501Z,96805.00
2019-04-07T10:04:52.118Z,96809.00
2019-04-07T10:09:01.089Z,96806.00
2019-04-07T10:13:06.731Z,96814.00
2019-04-07T10:17:18.722Z,96822.00
2019-04-07T10:21:21.852Z,96810.00
2019-04-07T10:25:34.311Z,96821.00
2019-04-07T10:29:40.273Z,96817.00
2019-04-07T10:33:58.351Z,96829.00
2019-04-07T10:38:04.337Z,96826.00
2019-04-07T10:42:13.747Z,96820.00
2019-04-07T10:46:20.335Z,96812.00
2019-04-07T10:50:26.837Z,96816.00
2019-04-07T10:54:32.580Z,96818.00
2019-04-07T10:58:53.984Z,96818.00
2019-04-07T11:03:00.846Z,96805.00
2019-04-07T11:07:04.190Z,96808.00
2019-04-07T11:11:13.283Z,96814.00
2019-04-07T11:15:28.110Z,96805.00
2019-04-07T11:19:31.123Z,96810.00
2019-04-07T11:23:52.343Z,96814.00
2019-04-07T11:28:04.626Z,96807.00
2019-04-07T11:32:20.672Z,96811.00
2019-04-07T11:36:26.533Z,96812.00
2019-04-07T11:40:49.594Z,96813.00
2019-04-07T11:44:51.822Z,96813.00
2019-04-07T11:49:13.086Z,96804.00
2019-04-07T11:53:22.042Z,96805.00
2019-04-07T11:57:24.906Z,96803.00
2019-04-07T12:01:28.171Z,96808.00
2019-04-07T12:05:40.786Z,96809.00
2019-04-07T12:10:00.256Z,96811.00
2019-04-07T12:14:06.298Z,96801.00
2019-04-07T12:18:21.458Z,96809.00
2019-04-07T12:22:28.167Z,96810.00
2019-04-07T12:26:42.444Z,96804.00
2019-04-07T12:30:48.303Z,96791.00
2019-04-07T12:35:08.082Z,96799.00
2019-04-07T12:39:16.249Z,96801.00
2019-04-07T12:43:24.950Z,96801.00
2019-04-07T12:47:34.368Z,96793.00
2019-04-07T12:51:55.810Z,96795.00
2019-04-07T12:56:09.691Z,96788.00
2019-04-07T13:00:25.223Z,96785.00
2019-04-07T13:04:28.411Z,96783.00
2019-04-07T13:08:49.055Z,96780.00
2019-04-07T13:13:10.224Z,96785.00
2019-04-07T13:17:13.765Z,96786.00
2019-04-07T13:21:26.704Z,96766.00
2019-04-07T13:25:31.151Z,96779.00
2019-04-07T13:29:51.803Z,96780.00
2019-04-07T13:34:10.639Z,96782.00
2019-04-07T13:38:19.500Z,96777.00
2019-04-07T13:42:23.055Z,96778.00
2019-04-07T13:46:35.997Z,96775.00
2019-04-07T13:50:46.977Z,96778.00
2019-04-07T13:54:52.677Z,96782.00
2019-04-07T13:59:09.881Z,96776.00
2019-04-07T14:03:14.525Z,96778.00
2019-04-07T14:07:18.157Z,96781.00
2019-04-07T14:11:53.155Z,96778.00
2019-04-07T14:15:43.290Z,96778.00
2019-04-07T14:20:03.886Z,96785.00
2019-04-07T14:24:19.741Z,96781.00
2019-04-07T14:28:35.703Z,96787.00
2019-04-07T14:32:51.976Z,96783.00
2019-04-07T14:37:12.027Z,96784.00
2019-04-07T14:41:26.933Z,96793.00
2019-04-07T14:45:32.508Z,96796.00
2019-04-07T14:49:38.284Z,96780.00
2019-04-07T14:53:46.043Z,96789.00
2019-04-07T14:58:06.711Z,96796.00
2019-04-07T15:02:08.111Z,96789.00
2019-04-07T15:06:09.754Z,96795.00
2019-04-07T15:10:17.991Z,96805.00
2019-04-07T15:14:19.209Z,96805.00
2019-04-07T15:18:21.453Z,96807.00
2019-04-07T15:22:25.131Z,96797.00
2019-04-07T15:26:25.492Z,96797.00
2019-04-07T15:30:26.630Z,96798.00
2019-04-07T15:34:29.718Z,96800.00
2019-04-07T15:38:31.295Z,96795.00
2019-04-07T15:42:40.443Z,96792.00
2019-04-07T15:46:36.560Z,96797.00
2019-04-07T15:50:38.192Z,96802.00
2019-04-07T15:54:40.221Z,96806.00
2019-04-07T15:58:41.950Z,96803.00
2019-04-07T16:02:43.457Z,96803.00
2019-04-07T16:06:48.733Z,96816.00
2019-04-07T16:10:48.359Z,96812.00
2019-04-07T16:14:50.321Z,96815.00
2019-04-07T16:18:52.692Z,96812.00
2019-04-07T16:22:53.921Z,96816.00
2019-04-07T16:26:54.966Z,96814.00
2019-04-07T16:30:56.274Z,96824.00
2019-04-07T16:34:57.315Z,96821.00
2019-04-07T16:39:00.393Z,96816.00
2019-04-07T16:43:09.963Z,96832.00
2019-04-07T16:47:04.279Z,96837.00
2019-04-07T16:51:06.026Z,96834.00
2019-04-07T16:55:27.222Z,96843.00
2019-04-07T16:59:28.415Z,96838.00
2019-04-07T17:03:29.775Z,96850.00
2019-04-07T17:07:30.724Z,96847.00
2019-04-07T17:11:32.316Z,96843.00
2019-04-07T17:15:37.351Z,96849.00
2019-04-07T17:19:37.233Z,96846.00
2019-04-07T17:23:38.800Z,96850.00
2019-04-07T17:27:42.439Z,96861.00
2019-04-07T17:31:44.385Z,96865.00
2019-04-07T17:35:46.105Z,96849.00
2019-04-07T17:39:49.477Z,96863.00
2019-04-07T17:44:13.223Z,96863.00
2019-04-07T17:48:23.331Z,96868.00
2019-04-07T17:52:27.081Z,96884.00
2019-04-07T17:56:36.837Z,96873.00
2019-04-07T18:00:41.355Z,96882.00
2019-04-07T18:05:01.287Z,96891.00
2019-04-07T18:09:23.402Z,96882.00
2019-04-07T18:13:44.949Z,96897.00
2019-04-07T18:17:56.088Z,96893.00
2019-04-07T18:22:06.159Z,96905.00
2019-04-07T18:26:26.319Z,96910.00
2019-04-07T18:30:31.520Z,96905.00
2019-04-07T18:34:50.473Z,96919.00
2019-04-07T18:39:05.250Z,96913.00
2019-04-07T18:43:13.862Z,96921.00
2019-04-07T18:47:24.535Z,96926.00
2019-04-07T18:51:30.183Z,96940.00
2019-04-07T18:55:38.958Z,96938.00
2019-04-07T18:59:47.397Z,96948.00
2019-04-07T19:03:56.037Z,96950.00
2019-04-07T19:08:02.643Z,96955.00
2019-04-07T19:12:14.239Z,96946.00
2019-04-07T19:16:21.605Z,96914.00
2019-04-07T19:20:26.789Z,96954.00
2019-04-07T19:24:35.834Z,96961.00
2019-04-07T19:28:38.994Z,96965.00
2019-04-07T19:32:41.951Z,96967.00
2019-04-07T19:36:47.201Z,96970.00
2019-04-07T19:41:06.863Z,96972.00
2019-04-07T19:45:26.910Z,96970.00
2019-04-07T19:49:30.068Z,96974.00
2019-04-07T19:53:43.213Z,96974.00
2019-04-07T19:58:02.686Z,96975.00
2019-04-07T20:02:22.258Z,96971.00
2019-04-07T20:06:27.917Z,96968.00
2019-04-07T20:10:36.813Z,96982.00
2019-04-07T20:14:55.557Z,96982.00
2019-04-07T20:19:06.536Z,96984.00
2019-04-07T20:23:29.610Z,96981.00
2019-04-07T20:27:40.586Z,96985.00
2019-04-07T20:31:53.718Z,96988.00
2019-04-07T20:36:06.637Z,96987.00
2019-04-07T20:40:26.880Z,96984.00
2019-04-07T20:45:00.036Z,96978.00
2019-04-07T20:49:10.375Z,96979.00
2019-04-07T20:53:17.657Z,96983.00
2019-04-07T20:57:23.646Z,96986.00
2019-04-07T21:01:22.676Z,96987.00
2019-04-07T21:05:27.104Z,96984.00
2019-04-07T21:09:36.032Z,96999.00
2019-04-07T21:13:41.975Z,96991.00
2019-04-07T21:17:45.008Z,96992.00
2019-04-07T21:21:50.806Z,96999.00
2019-04-07T21:25:55.971Z,96996.00
2019-04-07T21:30:04.590Z,96999.00
2019-04-07T21:34:10.316Z,97000.00
2019-04-07T21:38:19.682Z,97004.00
2019-04-07T21:42:27.448Z,96997.00
2019-04-07T21:46:47.283Z,97005.00
2019-04-07T21:50:56.212Z,97000.00
2019-04-07T21:55:02.156Z,97002.00
2019-04-07T21:59:21.755Z,96992.00
2019-04-07T22:03:36.227Z,97000.00
2019-04-07T22:07:46.183Z,97003.00
2019-04-07T22:11:47.309Z,97007.00
2019-04-07T22:15:54.829Z,97007.00
2019-04-07T22:19:51.197Z,97006.00
2019-04-07T22:23:52.151Z,97006.00
2019-04-07T22:27:55.543Z,97006.00
2019-04-07T22:31:57.758Z,97007.00
2019-04-07T22:35:59.606Z,97010.00
2019-04-07T22:40:02.198Z,97014.00
2019-04-07T22:44:03.892Z,97012.00
2019-04-07T22:48:08.110Z,97016.00
2019-04-07T22:52:07.747Z,97017.00
2019-04-07T22:56:09.185Z,97016.00
2019-04-07T23:00:13.194Z,97008.00
2019-04-07T23:04:14.281Z,97020.00
2019-04-07T23:08:15.261Z,97022.00
2019-04-07T23:12:16.928Z,97019.00
2019-04-07T23:16:18.855Z,97017.00
2019-04-07T23:20:21.360Z,97013.00
2019-04-07T23:24:22.437Z,97022.00
2019-04-07T23:28:23.470Z,97021.00
2019-04-07T23:32:25.435Z,97034.00
2019-04-07T23:36:26.555Z,97022.00
2019-04-07T23:40:28.059Z,97018.00
2019-04-07T23:44:29.670Z,97029.00
2019-04-07T23:48:30.762Z,97025.00
2019-04-07T23:52:31.666Z,97026.00
2019-04-07T23:56:33.597Z,97025.00
